Shelburn, Indiana
Current Conditions -  °F | °C
As of 6:55 AM on Wednesday 28 Jan 2015 (Local Time) from KRSV Reporting Station
Clear Clear  
Wind Chill: 16°   Ceiling: Unl
Heat Index: 22°   Visibility: 10mi
Dew Point: 19°   Wind: 5mph
Humidity: 89%   Direction: 120°ESE
Pressure: 30.32"   Gusts: NA
Location:  39.18°N, 87.39°W
Report Text: KRSV 281155Z AUTO 12004KT 10SM CLR M05/M07 A3032 RMK AO2 T10551071 11045 21068
Loading
Personal Weather Stations






























Interactive Weather Map New forecast layout! Learn more

10-Day Weather Forecast

Advertisements
Track Severe Weather on mobile